sensor_id;sensor_type;location;lat;lon;timestamp;P1;durP1;ratioP1;P2;durP2;ratioP2
10934;SDS011;5520;45.752;4.874;2023-05-07T00:01:45;3.07;;;1.63;;
10934;SDS011;5520;45.752;4.874;2023-05-07T00:04:13;2.80;;;1.50;;
10934;SDS011;5520;45.752;4.874;2023-05-07T00:06:41;3.60;;;1.67;;
10934;SDS011;5520;45.752;4.874;2023-05-07T00:09:09;1.57;;;1.47;;
10934;SDS011;5520;45.752;4.874;2023-05-07T00:11:37;2.80;;;1.43;;
10934;SDS011;5520;45.752;4.874;2023-05-07T00:14:05;2.43;;;1.70;;
10934;SDS011;5520;45.752;4.874;2023-05-07T00:16:33;1.77;;;1.33;;
10934;SDS011;5520;45.752;4.874;2023-05-07T00:19:03;2.43;;;1.67;;
10934;SDS011;5520;45.752;4.874;2023-05-07T00:21:31;1.63;;;1.47;;
10934;SDS011;5520;45.752;4.874;2023-05-07T00:23:59;3.37;;;1.20;;
10934;SDS011;5520;45.752;4.874;2023-05-07T00:26:27;1.73;;;1.50;;
10934;SDS011;5520;45.752;4.874;2023-05-07T00:28:54;1.67;;;1.40;;
10934;SDS011;5520;45.752;4.874;2023-05-07T00:31:22;3.37;;;1.60;;
10934;SDS011;5520;45.752;4.874;2023-05-07T00:33:50;3.20;;;1.50;;
10934;SDS011;5520;45.752;4.874;2023-05-07T00:36:20;2.77;;;1.50;;
10934;SDS011;5520;45.752;4.874;2023-05-07T00:38:48;1.60;;;1.30;;
10934;SDS011;5520;45.752;4.874;2023-05-07T00:41:16;2.07;;;1.50;;
10934;SDS011;5520;45.752;4.874;2023-05-07T00:43:44;2.40;;;1.60;;
10934;SDS011;5520;45.752;4.874;2023-05-07T00:46:12;3.37;;;1.60;;
10934;SDS011;5520;45.752;4.874;2023-05-07T00:48:40;1.30;;;1.30;;
10934;SDS011;5520;45.752;4.874;2023-05-07T00:51:08;2.47;;;1.53;;
10934;SDS011;5520;45.752;4.874;2023-05-07T00:53:39;1.60;;;1.40;;
10934;SDS011;5520;45.752;4.874;2023-05-07T00:56:07;3.70;;;1.73;;
10934;SDS011;5520;45.752;4.874;2023-05-07T00:58:35;3.33;;;1.83;;
10934;SDS011;5520;45.752;4.874;2023-05-07T01:01:03;7.03;;;1.77;;
10934;SDS011;5520;45.752;4.874;2023-05-07T01:03:31;2.63;;;1.60;;
10934;SDS011;5520;45.752;4.874;2023-05-07T01:05:59;1.90;;;1.80;;
10934;SDS011;5520;45.752;4.874;2023-05-07T01:08:29;2.80;;;1.90;;
10934;SDS011;5520;45.752;4.874;2023-05-07T01:10:59;6.93;;;2.27;;
10934;SDS011;5520;45.752;4.874;2023-05-07T01:13:27;4.60;;;1.87;;
10934;SDS011;5520;45.752;4.874;2023-05-07T01:15:55;3.33;;;2.20;;
10934;SDS011;5520;45.752;4.874;2023-05-07T01:18:23;2.30;;;2.10;;
10934;SDS011;5520;45.752;4.874;2023-05-07T01:20:52;2.30;;;2.10;;
10934;SDS011;5520;45.752;4.874;2023-05-07T01:23:21;4.53;;;2.30;;
10934;SDS011;5520;45.752;4.874;2023-05-07T01:25:53;3.37;;;2.00;;
10934;SDS011;5520;45.752;4.874;2023-05-07T01:28:21;2.37;;;2.17;;
10934;SDS011;5520;45.752;4.874;2023-05-07T01:30:49;2.53;;;1.87;;
10934;SDS011;5520;45.752;4.874;2023-05-07T01:33:20;2.20;;;1.90;;
10934;SDS011;5520;45.752;4.874;2023-05-07T01:35:51;2.90;;;2.20;;
10934;SDS011;5520;45.752;4.874;2023-05-07T01:38:21;2.43;;;1.90;;
10934;SDS011;5520;45.752;4.874;2023-05-07T01:40:50;1.70;;;1.60;;
10934;SDS011;5520;45.752;4.874;2023-05-07T01:43:18;5.63;;;2.00;;
10934;SDS011;5520;45.752;4.874;2023-05-07T01:45:46;1.90;;;1.80;;
10934;SDS011;5520;45.752;4.874;2023-05-07T01:48:15;2.47;;;1.57;;
10934;SDS011;5520;45.752;4.874;2023-05-07T01:50:43;2.47;;;1.90;;
10934;SDS011;5520;45.752;4.874;2023-05-07T01:53:11;2.97;;;2.13;;
10934;SDS011;5520;45.752;4.874;2023-05-07T01:55:41;2.67;;;2.00;;
10934;SDS011;5520;45.752;4.874;2023-05-07T01:58:09;4.67;;;2.07;;
10934;SDS011;5520;45.752;4.874;2023-05-07T02:00:37;1.77;;;1.67;;
10934;SDS011;5520;45.752;4.874;2023-05-07T02:03:05;4.10;;;1.83;;
10934;SDS011;5520;45.752;4.874;2023-05-07T02:05:33;2.10;;;1.90;;
10934;SDS011;5520;45.752;4.874;2023-05-07T02:08:01;1.83;;;1.70;;
10934;SDS011;5520;45.752;4.874;2023-05-07T02:10:29;2.53;;;1.80;;
10934;SDS011;5520;45.752;4.874;2023-05-07T02:12:58;3.00;;;2.80;;
10934;SDS011;5520;45.752;4.874;2023-05-07T02:15:28;2.80;;;1.80;;
10934;SDS011;5520;45.752;4.874;2023-05-07T02:17:59;2.20;;;1.90;;
10934;SDS011;5520;45.752;4.874;2023-05-07T02:20:28;1.90;;;1.80;;
10934;SDS011;5520;45.752;4.874;2023-05-07T02:22:56;2.70;;;2.00;;
10934;SDS011;5520;45.752;4.874;2023-05-07T02:25:24;2.53;;;1.77;;
10934;SDS011;5520;45.752;4.874;2023-05-07T02:27:52;3.90;;;2.53;;
10934;SDS011;5520;45.752;4.874;2023-05-07T02:30:21;1.50;;;1.40;;
10934;SDS011;5520;45.752;4.874;2023-05-07T02:32:50;1.93;;;1.73;;
10934;SDS011;5520;45.752;4.874;2023-05-07T02:35:18;3.00;;;2.27;;
10934;SDS011;5520;45.752;4.874;2023-05-07T02:37:46;2.40;;;1.73;;
10934;SDS011;5520;45.752;4.874;2023-05-07T02:40:14;7.50;;;2.50;;
10934;SDS011;5520;45.752;4.874;2023-05-07T02:42:42;4.97;;;2.00;;
10934;SDS011;5520;45.752;4.874;2023-05-07T02:45:10;2.40;;;2.20;;
10934;SDS011;5520;45.752;4.874;2023-05-07T02:47:39;2.23;;;1.97;;
10934;SDS011;5520;45.752;4.874;2023-05-07T02:50:09;5.57;;;2.30;;
10934;SDS011;5520;45.752;4.874;2023-05-07T02:52:38;2.70;;;2.10;;
10934;SDS011;5520;45.752;4.874;2023-05-07T02:55:06;3.03;;;2.13;;
10934;SDS011;5520;45.752;4.874;2023-05-07T02:57:34;2.20;;;2.00;;
10934;SDS011;5520;45.752;4.874;2023-05-07T03:00:10;3.00;;;1.77;;
10934;SDS011;5520;45.752;4.874;2023-05-07T03:02:39;2.90;;;1.73;;
10934;SDS011;5520;45.752;4.874;2023-05-07T03:05:08;1.73;;;1.63;;
10934;SDS011;5520;45.752;4.874;2023-05-07T03:07:35;5.97;;;1.93;;
10934;SDS011;5520;45.752;4.874;2023-05-07T03:10:04;1.60;;;1.50;;
10934;SDS011;5520;45.752;4.874;2023-05-07T03:12:32;2.23;;;1.70;;
10934;SDS011;5520;45.752;4.874;2023-05-07T03:15:01;1.60;;;1.50;;
10934;SDS011;5520;45.752;4.874;2023-05-07T03:17:29;1.50;;;1.40;;
10934;SDS011;5520;45.752;4.874;2023-05-07T03:19:58;1.60;;;1.50;;
10934;SDS011;5520;45.752;4.874;2023-05-07T03:22:26;1.27;;;1.23;;
10934;SDS011;5520;45.752;4.874;2023-05-07T03:24:54;1.93;;;1.50;;
10934;SDS011;5520;45.752;4.874;2023-05-07T03:27:22;1.60;;;1.50;;
10934;SDS011;5520;45.752;4.874;2023-05-07T03:29:50;2.00;;;1.50;;
10934;SDS011;5520;45.752;4.874;2023-05-07T03:32:18;1.77;;;1.30;;
10934;SDS011;5520;45.752;4.874;2023-05-07T03:34:46;2.53;;;1.43;;
10934;SDS011;5520;45.752;4.874;2023-05-07T03:37:15;1.63;;;1.30;;
10934;SDS011;5520;45.752;4.874;2023-05-07T03:39:43;1.80;;;1.40;;
10934;SDS011;5520;45.752;4.874;2023-05-07T03:42:11;1.50;;;1.40;;
10934;SDS011;5520;45.752;4.874;2023-05-07T03:44:39;3.27;;;2.57;;
10934;SDS011;5520;45.752;4.874;2023-05-07T03:47:07;3.43;;;1.57;;
10934;SDS011;5520;45.752;4.874;2023-05-07T03:49:36;2.60;;;1.60;;
10934;SDS011;5520;45.752;4.874;2023-05-07T03:52:04;2.43;;;1.63;;
10934;SDS011;5520;45.752;4.874;2023-05-07T03:54:34;2.17;;;1.50;;
10934;SDS011;5520;45.752;4.874;2023-05-07T03:57:02;2.13;;;1.60;;
10934;SDS011;5520;45.752;4.874;2023-05-07T03:59:30;2.07;;;1.40;;
10934;SDS011;5520;45.752;4.874;2023-05-07T04:01:58;4.83;;;1.27;;
10934;SDS011;5520;45.752;4.874;2023-05-07T04:04:29;1.67;;;1.23;;
10934;SDS011;5520;45.752;4.874;2023-05-07T04:06:59;1.20;;;1.10;;
10934;SDS011;5520;45.752;4.874;2023-05-07T04:09:27;2.30;;;1.30;;
10934;SDS011;5520;45.752;4.874;2023-05-07T04:11:56;2.30;;;1.23;;
10934;SDS011;5520;45.752;4.874;2023-05-07T04:14:24;1.50;;;1.40;;
10934;SDS011;5520;45.752;4.874;2023-05-07T04:16:52;2.03;;;1.40;;
10934;SDS011;5520;45.752;4.874;2023-05-07T04:19:20;1.77;;;1.33;;
10934;SDS011;5520;45.752;4.874;2023-05-07T04:21:48;1.17;;;1.10;;
10934;SDS011;5520;45.752;4.874;2023-05-07T04:24:16;2.67;;;1.30;;
10934;SDS011;5520;45.752;4.874;2023-05-07T04:26:44;1.37;;;0.97;;
10934;SDS011;5520;45.752;4.874;2023-05-07T04:29:14;1.30;;;1.10;;
10934;SDS011;5520;45.752;4.874;2023-05-07T04:31:42;1.27;;;1.03;;
10934;SDS011;5520;45.752;4.874;2023-05-07T04:34:11;1.00;;;1.00;;
10934;SDS011;5520;45.752;4.874;2023-05-07T04:36:39;0.97;;;0.97;;
10934;SDS011;5520;45.752;4.874;2023-05-07T04:39:07;1.47;;;1.37;;
10934;SDS011;5520;45.752;4.874;2023-05-07T04:41:36;1.53;;;1.00;;
10934;SDS011;5520;45.752;4.874;2023-05-07T04:44:04;1.20;;;1.10;;
10934;SDS011;5520;45.752;4.874;2023-05-07T04:46:34;1.10;;;1.10;;
10934;SDS011;5520;45.752;4.874;2023-05-07T04:49:02;5.50;;;1.53;;
10934;SDS011;5520;45.752;4.874;2023-05-07T04:51:30;0.97;;;0.97;;
10934;SDS011;5520;45.752;4.874;2023-05-07T04:53:59;2.50;;;1.10;;
10934;SDS011;5520;45.752;4.874;2023-05-07T04:56:27;0.97;;;0.97;;
10934;SDS011;5520;45.752;4.874;2023-05-07T04:58:55;1.40;;;1.30;;
10934;SDS011;5520;45.752;4.874;2023-05-07T05:01:23;1.23;;;1.13;;
10934;SDS011;5520;45.752;4.874;2023-05-07T05:03:53;4.73;;;1.33;;
10934;SDS011;5520;45.752;4.874;2023-05-07T05:06:21;1.20;;;1.10;;
10934;SDS011;5520;45.752;4.874;2023-05-07T05:08:49;1.30;;;1.20;;
10934;SDS011;5520;45.752;4.874;2023-05-07T05:11:16;1.20;;;1.10;;
10934;SDS011;5520;45.752;4.874;2023-05-07T05:13:44;1.70;;;1.33;;
10934;SDS011;5520;45.752;4.874;2023-05-07T05:16:14;4.30;;;1.33;;
10934;SDS011;5520;45.752;4.874;2023-05-07T05:18:42;1.10;;;1.10;;
10934;SDS011;5520;45.752;4.874;2023-05-07T05:21:12;1.33;;;1.20;;
10934;SDS011;5520;45.752;4.874;2023-05-07T05:23:40;1.37;;;1.10;;
10934;SDS011;5520;45.752;4.874;2023-05-07T05:26:07;4.20;;;1.20;;
10934;SDS011;5520;45.752;4.874;2023-05-07T05:28:35;4.17;;;1.20;;
10934;SDS011;5520;45.752;4.874;2023-05-07T05:31:04;4.40;;;1.53;;
10934;SDS011;5520;45.752;4.874;2023-05-07T05:33:32;1.27;;;1.00;;
10934;SDS011;5520;45.752;4.874;2023-05-07T05:36:00;3.70;;;1.33;;
10934;SDS011;5520;45.752;4.874;2023-05-07T05:38:29;3.20;;;1.50;;
10934;SDS011;5520;45.752;4.874;2023-05-07T05:40:57;1.33;;;1.23;;
10934;SDS011;5520;45.752;4.874;2023-05-07T05:43:25;1.30;;;1.20;;
10934;SDS011;5520;45.752;4.874;2023-05-07T05:45:54;1.43;;;1.03;;
10934;SDS011;5520;45.752;4.874;2023-05-07T05:48:22;1.30;;;1.20;;
10934;SDS011;5520;45.752;4.874;2023-05-07T05:50:50;1.33;;;1.20;;
10934;SDS011;5520;45.752;4.874;2023-05-07T05:53:19;2.70;;;1.40;;
10934;SDS011;5520;45.752;4.874;2023-05-07T05:55:48;2.33;;;1.23;;
10934;SDS011;5520;45.752;4.874;2023-05-07T05:58:16;1.20;;;1.10;;
10934;SDS011;5520;45.752;4.874;2023-05-07T06:00:44;1.20;;;1.20;;
10934;SDS011;5520;45.752;4.874;2023-05-07T06:03:12;1.60;;;1.50;;
10934;SDS011;5520;45.752;4.874;2023-05-07T06:05:40;2.63;;;1.50;;
10934;SDS011;5520;45.752;4.874;2023-05-07T06:08:08;1.30;;;1.20;;
10934;SDS011;5520;45.752;4.874;2023-05-07T06:10:36;1.30;;;1.20;;
10934;SDS011;5520;45.752;4.874;2023-05-07T06:13:05;1.80;;;1.20;;
10934;SDS011;5520;45.752;4.874;2023-05-07T06:15:33;1.53;;;1.30;;
10934;SDS011;5520;45.752;4.874;2023-05-07T06:18:01;1.77;;;1.40;;
10934;SDS011;5520;45.752;4.874;2023-05-07T06:20:29;1.67;;;1.37;;
10934;SDS011;5520;45.752;4.874;2023-05-07T06:22:57;2.60;;;1.37;;
10934;SDS011;5520;45.752;4.874;2023-05-07T06:25:25;3.87;;;1.67;;
10934;SDS011;5520;45.752;4.874;2023-05-07T06:27:53;1.10;;;1.10;;
10934;SDS011;5520;45.752;4.874;2023-05-07T06:30:23;1.83;;;1.50;;
10934;SDS011;5520;45.752;4.874;2023-05-07T06:32:51;1.97;;;1.20;;
10934;SDS011;5520;45.752;4.874;2023-05-07T06:35:19;2.20;;;1.20;;
10934;SDS011;5520;45.752;4.874;2023-05-07T06:37:46;1.50;;;1.40;;
10934;SDS011;5520;45.752;4.874;2023-05-07T06:40:14;1.40;;;1.30;;
10934;SDS011;5520;45.752;4.874;2023-05-07T06:42:43;1.30;;;1.20;;
10934;SDS011;5520;45.752;4.874;2023-05-07T06:45:11;1.10;;;1.10;;
10934;SDS011;5520;45.752;4.874;2023-05-07T06:47:40;2.87;;;1.23;;
10934;SDS011;5520;45.752;4.874;2023-05-07T06:50:08;2.30;;;1.20;;
10934;SDS011;5520;45.752;4.874;2023-05-07T06:52:37;8.37;;;1.87;;
10934;SDS011;5520;45.752;4.874;2023-05-07T06:55:06;1.57;;;1.47;;
10934;SDS011;5520;45.752;4.874;2023-05-07T06:57:34;1.57;;;1.20;;
10934;SDS011;5520;45.752;4.874;2023-05-07T07:00:02;1.50;;;1.40;;
10934;SDS011;5520;45.752;4.874;2023-05-07T07:02:30;1.90;;;1.53;;
10934;SDS011;5520;45.752;4.874;2023-05-07T07:05:00;3.07;;;1.60;;
10934;SDS011;5520;45.752;4.874;2023-05-07T07:07:28;1.57;;;1.40;;
10934;SDS011;5520;45.752;4.874;2023-05-07T07:09:56;1.47;;;1.37;;
10934;SDS011;5520;45.752;4.874;2023-05-07T07:12:24;1.53;;;1.43;;
10934;SDS011;5520;45.752;4.874;2023-05-07T07:14:52;1.80;;;1.50;;
10934;SDS011;5520;45.752;4.874;2023-05-07T07:17:20;1.83;;;1.30;;
10934;SDS011;5520;45.752;4.874;2023-05-07T07:19:48;1.63;;;1.30;;
10934;SDS011;5520;45.752;4.874;2023-05-07T07:22:18;3.10;;;1.97;;
10934;SDS011;5520;45.752;4.874;2023-05-07T07:24:45;4.13;;;1.80;;
10934;SDS011;5520;45.752;4.874;2023-05-07T07:27:13;2.90;;;1.80;;
10934;SDS011;5520;45.752;4.874;2023-05-07T07:29:41;2.70;;;2.03;;
10934;SDS011;5520;45.752;4.874;2023-05-07T07:32:09;2.63;;;1.80;;
10934;SDS011;5520;45.752;4.874;2023-05-07T07:34:37;1.87;;;1.63;;
10934;SDS011;5520;45.752;4.874;2023-05-07T07:37:05;2.23;;;1.60;;
10934;SDS011;5520;45.752;4.874;2023-05-07T07:39:37;3.37;;;1.67;;
10934;SDS011;5520;45.752;4.874;2023-05-07T07:42:05;2.03;;;1.80;;
10934;SDS011;5520;45.752;4.874;2023-05-07T07:44:33;2.00;;;1.73;;
10934;SDS011;5520;45.752;4.874;2023-05-07T07:47:01;1.53;;;1.43;;
10934;SDS011;5520;45.752;4.874;2023-05-07T07:49:29;3.13;;;1.70;;
10934;SDS011;5520;45.752;4.874;2023-05-07T07:51:57;2.03;;;1.83;;
10934;SDS011;5520;45.752;4.874;2023-05-07T07:54:25;3.43;;;1.90;;
10934;SDS011;5520;45.752;4.874;2023-05-07T07:56:55;2.30;;;1.90;;
10934;SDS011;5520;45.752;4.874;2023-05-07T07:59:23;1.83;;;1.73;;
10934;SDS011;5520;45.752;4.874;2023-05-07T08:01:51;1.60;;;1.50;;
10934;SDS011;5520;45.752;4.874;2023-05-07T08:04:22;2.93;;;1.70;;
10934;SDS011;5520;45.752;4.874;2023-05-07T08:06:50;2.17;;;1.93;;
10934;SDS011;5520;45.752;4.874;2023-05-07T08:09:18;3.33;;;2.10;;
10934;SDS011;5520;45.752;4.874;2023-05-07T08:11:46;2.07;;;1.63;;
10934;SDS011;5520;45.752;4.874;2023-05-07T08:14:15;4.20;;;2.00;;
10934;SDS011;5520;45.752;4.874;2023-05-07T08:16:43;2.07;;;1.90;;
10934;SDS011;5520;45.752;4.874;2023-05-07T08:19:11;1.67;;;1.57;;
10934;SDS011;5520;45.752;4.874;2023-05-07T08:21:39;1.80;;;1.60;;
10934;SDS011;5520;45.752;4.874;2023-05-07T08:24:07;4.50;;;2.00;;
10934;SDS011;5520;45.752;4.874;2023-05-07T08:26:35;5.37;;;1.87;;
10934;SDS011;5520;45.752;4.874;2023-05-07T08:29:05;2.17;;;2.00;;
10934;SDS011;5520;45.752;4.874;2023-05-07T08:31:35;2.33;;;2.13;;
10934;SDS011;5520;45.752;4.874;2023-05-07T08:34:03;3.03;;;2.20;;
10934;SDS011;5520;45.752;4.874;2023-05-07T08:36:34;2.87;;;2.10;;
10934;SDS011;5520;45.752;4.874;2023-05-07T08:39:02;2.37;;;2.17;;
10934;SDS011;5520;45.752;4.874;2023-05-07T08:41:30;2.30;;;2.00;;
10934;SDS011;5520;45.752;4.874;2023-05-07T08:43:58;4.97;;;3.77;;
10934;SDS011;5520;45.752;4.874;2023-05-07T08:46:26;2.67;;;2.20;;
10934;SDS011;5520;45.752;4.874;2023-05-07T08:49:00;3.23;;;2.10;;
10934;SDS011;5520;45.752;4.874;2023-05-07T08:51:28;2.30;;;2.10;;
10934;SDS011;5520;45.752;4.874;2023-05-07T08:53:56;4.37;;;2.20;;
10934;SDS011;5520;45.752;4.874;2023-05-07T08:56:24;2.80;;;2.33;;
10934;SDS011;5520;45.752;4.874;2023-05-07T08:58:52;4.53;;;2.60;;
10934;SDS011;5520;45.752;4.874;2023-05-07T09:01:23;2.87;;;2.10;;
10934;SDS011;5520;45.752;4.874;2023-05-07T09:03:51;2.63;;;2.40;;
10934;SDS011;5520;45.752;4.874;2023-05-07T09:06:22;7.73;;;2.57;;
10934;SDS011;5520;45.752;4.874;2023-05-07T09:08:50;2.93;;;2.33;;
10934;SDS011;5520;45.752;4.874;2023-05-07T09:11:21;2.13;;;1.47;;
10934;SDS011;5520;45.752;4.874;2023-05-07T09:13:53;2.77;;;1.30;;
10934;SDS011;5520;45.752;4.874;2023-05-07T09:16:21;1.30;;;1.20;;
10934;SDS011;5520;45.752;4.874;2023-05-07T09:18:51;3.73;;;1.47;;
10934;SDS011;5520;45.752;4.874;2023-05-07T09:21:19;2.50;;;1.30;;
10934;SDS011;5520;45.752;4.874;2023-05-07T09:23:49;2.03;;;1.30;;
10934;SDS011;5520;45.752;4.874;2023-05-07T09:26:18;1.37;;;1.20;;
10934;SDS011;5520;45.752;4.874;2023-05-07T09:28:46;2.47;;;1.27;;
10934;SDS011;5520;45.752;4.874;2023-05-07T09:31:14;2.13;;;1.27;;
10934;SDS011;5520;45.752;4.874;2023-05-07T09:33:46;2.63;;;1.37;;
10934;SDS011;5520;45.752;4.874;2023-05-07T09:36:15;2.10;;;1.43;;
10934;SDS011;5520;45.752;4.874;2023-05-07T09:38:43;1.30;;;1.20;;
10934;SDS011;5520;45.752;4.874;2023-05-07T09:41:14;1.53;;;1.20;;
10934;SDS011;5520;45.752;4.874;2023-05-07T09:43:42;4.37;;;1.17;;
10934;SDS011;5520;45.752;4.874;2023-05-07T09:46:11;1.47;;;1.30;;
10934;SDS011;5520;45.752;4.874;2023-05-07T09:48:40;2.43;;;1.40;;
10934;SDS011;5520;45.752;4.874;2023-05-07T09:51:11;2.23;;;1.20;;
10934;SDS011;5520;45.752;4.874;2023-05-07T09:53:43;1.40;;;1.30;;
10934;SDS011;5520;45.752;4.874;2023-05-07T09:56:14;1.10;;;1.10;;
10934;SDS011;5520;45.752;4.874;2023-05-07T09:58:43;1.20;;;1.10;;
10934;SDS011;5520;45.752;4.874;2023-05-07T10:01:12;1.43;;;1.20;;
10934;SDS011;5520;45.752;4.874;2023-05-07T10:03:41;1.37;;;1.10;;
10934;SDS011;5520;45.752;4.874;2023-05-07T10:06:09;1.70;;;1.20;;
10934;SDS011;5520;45.752;4.874;2023-05-07T10:08:38;0.97;;;0.87;;
10934;SDS011;5520;45.752;4.874;2023-05-07T10:11:06;1.40;;;0.83;;
10934;SDS011;5520;45.752;4.874;2023-05-07T10:13:35;1.17;;;1.13;;
10934;SDS011;5520;45.752;4.874;2023-05-07T10:16:04;1.20;;;1.07;;
10934;SDS011;5520;45.752;4.874;2023-05-07T10:18:33;2.23;;;1.10;;
10934;SDS011;5520;45.752;4.874;2023-05-07T10:21:02;3.47;;;1.03;;
10934;SDS011;5520;45.752;4.874;2023-05-07T10:23:32;1.30;;;1.03;;
10934;SDS011;5520;45.752;4.874;2023-05-07T10:26:02;0.97;;;0.97;;
10934;SDS011;5520;45.752;4.874;2023-05-07T10:28:31;0.80;;;0.80;;
10934;SDS011;5520;45.752;4.874;2023-05-07T10:31:14;1.30;;;1.00;;
10934;SDS011;5520;45.752;4.874;2023-05-07T10:33:46;2.30;;;0.83;;
10934;SDS011;5520;45.752;4.874;2023-05-07T10:36:14;1.10;;;1.00;;
10934;SDS011;5520;45.752;4.874;2023-05-07T10:38:42;2.13;;;1.10;;
10934;SDS011;5520;45.752;4.874;2023-05-07T10:41:10;7.63;;;4.13;;
10934;SDS011;5520;45.752;4.874;2023-05-07T10:43:42;1.93;;;0.97;;
10934;SDS011;5520;45.752;4.874;2023-05-07T10:46:10;1.73;;;1.40;;
10934;SDS011;5520;45.752;4.874;2023-05-07T10:51:27;1.10;;;1.00;;
10934;SDS011;5520;45.752;4.874;2023-05-07T10:56:38;3.00;;;1.30;;
10934;SDS011;5520;45.752;4.874;2023-05-07T11:02:10;3.47;;;1.40;;
10934;SDS011;5520;45.752;4.874;2023-05-07T11:04:40;1.40;;;1.30;;
10934;SDS011;5520;45.752;4.874;2023-05-07T11:07:26;1.63;;;1.50;;
10934;SDS011;5520;45.752;4.874;2023-05-07T11:09:57;1.90;;;1.80;;
10934;SDS011;5520;45.752;4.874;2023-05-07T11:12:50;3.13;;;1.90;;
10934;SDS011;5520;45.752;4.874;2023-05-07T11:18:01;3.57;;;2.00;;
10934;SDS011;5520;45.752;4.874;2023-05-07T11:26:24;2.23;;;1.90;;
10934;SDS011;5520;45.752;4.874;2023-05-07T11:28:52;3.40;;;1.80;;
10934;SDS011;5520;45.752;4.874;2023-05-07T11:31:21;2.50;;;1.70;;
10934;SDS011;5520;45.752;4.874;2023-05-07T11:33:50;2.43;;;1.27;;
10934;SDS011;5520;45.752;4.874;2023-05-07T11:36:18;1.90;;;1.70;;
10934;SDS011;5520;45.752;4.874;2023-05-07T11:38:46;2.20;;;1.83;;
10934;SDS011;5520;45.752;4.874;2023-05-07T11:41:15;1.57;;;1.47;;
10934;SDS011;5520;45.752;4.874;2023-05-07T11:43:55;2.97;;;1.77;;
10934;SDS011;5520;45.752;4.874;2023-05-07T11:46:23;1.80;;;1.60;;
10934;SDS011;5520;45.752;4.874;2023-05-07T11:48:51;3.17;;;1.60;;
10934;SDS011;5520;45.752;4.874;2023-05-07T11:51:20;1.70;;;1.47;;
10934;SDS011;5520;45.752;4.874;2023-05-07T11:53:48;2.23;;;1.47;;
10934;SDS011;5520;45.752;4.874;2023-05-07T11:56:16;3.30;;;1.60;;
10934;SDS011;5520;45.752;4.874;2023-05-07T11:58:45;2.17;;;1.67;;
10934;SDS011;5520;45.752;4.874;2023-05-07T12:01:15;2.90;;;1.73;;
10934;SDS011;5520;45.752;4.874;2023-05-07T12:03:46;1.80;;;1.70;;
10934;SDS011;5520;45.752;4.874;2023-05-07T12:06:15;2.20;;;1.67;;
10934;SDS011;5520;45.752;4.874;2023-05-07T12:08:43;4.87;;;2.07;;
10934;SDS011;5520;45.752;4.874;2023-05-07T12:11:14;2.90;;;2.10;;
10934;SDS011;5520;45.752;4.874;2023-05-07T12:13:43;7.10;;;6.40;;
10934;SDS011;5520;45.752;4.874;2023-05-07T12:16:12;7.27;;;5.03;;
10934;SDS011;5520;45.752;4.874;2023-05-07T12:18:41;2.73;;;2.50;;
10934;SDS011;5520;45.752;4.874;2023-05-07T12:21:10;3.10;;;2.43;;
10934;SDS011;5520;45.752;4.874;2023-05-07T12:23:38;2.30;;;1.87;;
10934;SDS011;5520;45.752;4.874;2023-05-07T12:26:06;2.20;;;1.60;;
10934;SDS011;5520;45.752;4.874;2023-05-07T12:28:38;1.93;;;1.30;;
10934;SDS011;5520;45.752;4.874;2023-05-07T12:31:06;1.43;;;1.27;;
10934;SDS011;5520;45.752;4.874;2023-05-07T12:33:35;1.50;;;1.23;;
10934;SDS011;5520;45.752;4.874;2023-05-07T12:36:05;1.77;;;1.03;;
10934;SDS011;5520;45.752;4.874;2023-05-07T12:38:34;2.80;;;1.20;;
10934;SDS011;5520;45.752;4.874;2023-05-07T12:41:02;1.00;;;1.00;;
10934;SDS011;5520;45.752;4.874;2023-05-07T12:43:30;2.47;;;1.27;;
10934;SDS011;5520;45.752;4.874;2023-05-07T12:45:59;1.87;;;1.10;;
10934;SDS011;5520;45.752;4.874;2023-05-07T12:48:27;1.40;;;0.90;;
10934;SDS011;5520;45.752;4.874;2023-05-07T12:50:56;1.17;;;1.03;;
10934;SDS011;5520;45.752;4.874;2023-05-07T12:53:26;0.80;;;0.80;;
10934;SDS011;5520;45.752;4.874;2023-05-07T12:55:55;1.70;;;1.10;;
10934;SDS011;5520;45.752;4.874;2023-05-07T12:58:24;1.80;;;1.43;;
10934;SDS011;5520;45.752;4.874;2023-05-07T13:00:52;1.60;;;1.50;;
10934;SDS011;5520;45.752;4.874;2023-05-07T13:03:20;1.87;;;1.43;;
10934;SDS011;5520;45.752;4.874;2023-05-07T13:05:49;1.20;;;1.10;;
10934;SDS011;5520;45.752;4.874;2023-05-07T13:08:23;1.30;;;0.97;;
10934;SDS011;5520;45.752;4.874;2023-05-07T13:10:53;0.93;;;0.90;;
10934;SDS011;5520;45.752;4.874;2023-05-07T13:13:21;0.93;;;0.93;;
10934;SDS011;5520;45.752;4.874;2023-05-07T13:15:49;0.90;;;0.90;;
10934;SDS011;5520;45.752;4.874;2023-05-07T13:18:17;1.80;;;1.30;;
10934;SDS011;5520;45.752;4.874;2023-05-07T13:20:45;0.90;;;0.90;;
10934;SDS011;5520;45.752;4.874;2023-05-07T13:23:13;1.17;;;0.83;;
10934;SDS011;5520;45.752;4.874;2023-05-07T13:25:41;1.60;;;1.17;;
10934;SDS011;5520;45.752;4.874;2023-05-07T13:28:10;0.80;;;0.80;;
10934;SDS011;5520;45.752;4.874;2023-05-07T13:30:38;0.80;;;0.80;;
10934;SDS011;5520;45.752;4.874;2023-05-07T13:33:07;1.10;;;0.87;;
10934;SDS011;5520;45.752;4.874;2023-05-07T13:35:35;1.90;;;0.87;;
10934;SDS011;5520;45.752;4.874;2023-05-07T13:38:03;0.80;;;0.80;;
10934;SDS011;5520;45.752;4.874;2023-05-07T13:40:31;1.17;;;0.90;;
10934;SDS011;5520;45.752;4.874;2023-05-07T13:42:59;0.83;;;0.80;;
10934;SDS011;5520;45.752;4.874;2023-05-07T13:45:30;1.00;;;0.70;;
10934;SDS011;5520;45.752;4.874;2023-05-07T13:47:58;0.97;;;0.67;;
10934;SDS011;5520;45.752;4.874;2023-05-07T13:50:26;0.77;;;0.77;;
10934;SDS011;5520;45.752;4.874;2023-05-07T13:52:56;0.40;;;0.40;;
10934;SDS011;5520;45.752;4.874;2023-05-07T13:55:24;0.63;;;0.63;;
10934;SDS011;5520;45.752;4.874;2023-05-07T13:57:55;1.70;;;0.70;;
10934;SDS011;5520;45.752;4.874;2023-05-07T14:00:24;0.60;;;0.60;;
10934;SDS011;5520;45.752;4.874;2023-05-07T14:02:54;1.00;;;0.50;;
10934;SDS011;5520;45.752;4.874;2023-05-07T14:05:22;1.00;;;0.53;;
10934;SDS011;5520;45.752;4.874;2023-05-07T14:07:51;0.50;;;0.50;;
10934;SDS011;5520;45.752;4.874;2023-05-07T14:10:19;0.80;;;0.80;;
10934;SDS011;5520;45.752;4.874;2023-05-07T14:12:47;0.47;;;0.30;;
10934;SDS011;5520;45.752;4.874;2023-05-07T14:15:15;0.40;;;0.40;;
10934;SDS011;5520;45.752;4.874;2023-05-07T14:17:43;0.40;;;0.40;;
10934;SDS011;5520;45.752;4.874;2023-05-07T14:20:13;1.70;;;0.40;;
10934;SDS011;5520;45.752;4.874;2023-05-07T14:22:41;0.47;;;0.47;;
10934;SDS011;5520;45.752;4.874;2023-05-07T14:25:09;1.07;;;0.53;;
10934;SDS011;5520;45.752;4.874;2023-05-07T14:27:40;1.40;;;0.40;;
10934;SDS011;5520;45.752;4.874;2023-05-07T14:30:08;0.40;;;0.40;;
10934;SDS011;5520;45.752;4.874;2023-05-07T14:32:36;0.30;;;0.30;;
10934;SDS011;5520;45.752;4.874;2023-05-07T14:35:04;0.40;;;0.40;;
10934;SDS011;5520;45.752;4.874;2023-05-07T14:37:36;0.30;;;0.30;;
10934;SDS011;5520;45.752;4.874;2023-05-07T14:40:05;0.63;;;0.30;;
10934;SDS011;5520;45.752;4.874;2023-05-07T14:42:34;0.50;;;0.40;;
10934;SDS011;5520;45.752;4.874;2023-05-07T14:45:02;0.47;;;0.47;;
10934;SDS011;5520;45.752;4.874;2023-05-07T14:47:30;0.50;;;0.50;;
10934;SDS011;5520;45.752;4.874;2023-05-07T14:49:58;1.07;;;0.60;;
10934;SDS011;5520;45.752;4.874;2023-05-07T14:52:27;0.30;;;0.30;;
10934;SDS011;5520;45.752;4.874;2023-05-07T14:54:57;0.57;;;0.37;;
10934;SDS011;5520;45.752;4.874;2023-05-07T14:57:25;0.43;;;0.37;;
10934;SDS011;5520;45.752;4.874;2023-05-07T14:59:52;0.60;;;0.60;;
10934;SDS011;5520;45.752;4.874;2023-05-07T15:02:20;0.50;;;0.47;;
10934;SDS011;5520;45.752;4.874;2023-05-07T15:04:49;2.80;;;0.40;;
10934;SDS011;5520;45.752;4.874;2023-05-07T15:07:17;0.37;;;0.30;;
10934;SDS011;5520;45.752;4.874;2023-05-07T15:09:45;0.23;;;0.23;;
10934;SDS011;5520;45.752;4.874;2023-05-07T15:12:15;0.47;;;0.40;;
10934;SDS011;5520;45.752;4.874;2023-05-07T15:14:42;1.43;;;0.50;;
10934;SDS011;5520;45.752;4.874;2023-05-07T15:17:10;0.50;;;0.30;;
10934;SDS011;5520;45.752;4.874;2023-05-07T15:19:38;0.30;;;0.30;;
10934;SDS011;5520;45.752;4.874;2023-05-07T15:22:06;0.50;;;0.50;;
10934;SDS011;5520;45.752;4.874;2023-05-07T15:24:34;0.40;;;0.40;;
10934;SDS011;5520;45.752;4.874;2023-05-07T15:27:02;8.23;;;0.70;;